createdAt,value
2019-01-29T00:01:29.580Z,2.90
2019-01-29T00:03:58.861Z,2.90
2019-01-29T00:06:28.159Z,2.90
2019-01-29T00:08:57.409Z,2.90
2019-01-29T00:11:26.717Z,2.90
2019-01-29T00:13:56.063Z,3.00
2019-01-29T00:16:25.336Z,3.00
2019-01-29T00:18:54.633Z,2.90
2019-01-29T00:21:23.901Z,2.90
2019-01-29T00:23:53.189Z,2.90
2019-01-29T00:26:22.504Z,2.90
2019-01-29T00:28:51.785Z,2.90
2019-01-29T00:31:21.086Z,3.00
2019-01-29T00:33:50.359Z,3.00
2019-01-29T00:36:19.634Z,2.90
2019-01-29T00:38:48.901Z,2.90
2019-01-29T00:41:18.179Z,2.90
2019-01-29T00:43:47.435Z,2.90
2019-01-29T00:46:16.765Z,3.00
2019-01-29T00:48:46.078Z,3.00
2019-01-29T00:51:15.399Z,3.00
2019-01-29T00:53:44.668Z,2.90
2019-01-29T00:56:13.972Z,3.00
2019-01-29T00:58:43.234Z,3.00
2019-01-29T01:01:12.496Z,3.00
2019-01-29T01:03:41.802Z,3.10
2019-01-29T01:06:11.156Z,3.00
2019-01-29T01:08:40.430Z,3.00
2019-01-29T01:11:09.708Z,3.00
2019-01-29T01:13:38.985Z,3.00
2019-01-29T01:16:08.253Z,3.00
2019-01-29T01:18:37.532Z,3.00
2019-01-29T01:21:06.801Z,3.00
2019-01-29T01:23:36.109Z,3.00
2019-01-29T01:26:05.444Z,3.00
2019-01-29T01:28:34.713Z,2.90
2019-01-29T01:31:04.000Z,3.00
2019-01-29T01:33:33.332Z,2.90
2019-01-29T01:36:02.600Z,2.90
2019-01-29T01:38:31.915Z,2.90
2019-01-29T01:41:01.213Z,2.80
2019-01-29T01:43:30.463Z,2.80
2019-01-29T01:45:59.748Z,2.90
2019-01-29T01:48:29.032Z,2.80
2019-01-29T01:50:58.306Z,2.90
2019-01-29T01:53:27.566Z,2.90
2019-01-29T01:55:56.856Z,2.90
2019-01-29T01:58:26.113Z,2.90
2019-01-29T02:00:55.406Z,2.90
2019-01-29T02:03:24.736Z,2.90
2019-01-29T02:05:54.010Z,2.90
2019-01-29T02:08:23.267Z,2.90
2019-01-29T02:10:52.569Z,2.90
2019-01-29T02:13:21.833Z,2.80
2019-01-29T02:15:51.120Z,2.80
2019-01-29T02:18:20.404Z,2.80
2019-01-29T02:20:49.668Z,2.80
2019-01-29T02:23:18.936Z,2.90
2019-01-29T02:25:48.225Z,3.00
2019-01-29T02:28:17.584Z,3.00
2019-01-29T02:30:46.865Z,3.00
2019-01-29T02:33:16.188Z,3.00
2019-01-29T02:35:45.448Z,3.00
2019-01-29T02:38:14.772Z,3.00
2019-01-29T02:40:44.061Z,2.90
2019-01-29T02:43:13.313Z,3.00
2019-01-29T02:45:42.585Z,3.00
2019-01-29T02:48:11.890Z,2.90
2019-01-29T02:50:41.158Z,3.00
2019-01-29T02:53:18.012Z,2.90
2019-01-29T02:55:41.450Z,2.90
2019-01-29T02:58:10.717Z,3.00
2019-01-29T03:00:39.986Z,3.00
2019-01-29T03:03:09.268Z,3.00
2019-01-29T03:05:38.527Z,3.10
2019-01-29T03:08:07.790Z,3.00
2019-01-29T03:10:37.425Z,3.10
2019-01-29T03:13:06.675Z,3.10
2019-01-29T03:15:35.932Z,3.10
2019-01-29T03:18:05.332Z,3.20
2019-01-29T03:20:34.601Z,3.20
2019-01-29T03:23:03.864Z,3.20
2019-01-29T03:25:33.150Z,3.30
2019-01-29T03:28:02.416Z,3.20
2019-01-29T03:30:31.673Z,3.20
2019-01-29T03:33:00.957Z,3.20
2019-01-29T03:35:30.223Z,3.10
2019-01-29T03:37:59.519Z,3.20
2019-01-29T03:40:29.595Z,3.10
2019-01-29T03:42:58.877Z,3.10
2019-01-29T03:45:28.147Z,3.20
2019-01-29T03:47:57.482Z,3.10
2019-01-29T03:50:26.761Z,3.10
2019-01-29T03:52:56.025Z,3.10
2019-01-29T03:55:25.330Z,3.10
2019-01-29T03:57:54.573Z,3.10
2019-01-29T04:00:28.239Z,3.10
2019-01-29T04:02:57.484Z,3.10
2019-01-29T04:05:26.752Z,3.00
2019-01-29T04:07:56.037Z,3.00
2019-01-29T04:10:25.309Z,3.10
2019-01-29T04:12:54.580Z,3.10
2019-01-29T04:15:24.451Z,3.10
2019-01-29T04:17:58.917Z,3.00
2019-01-29T04:20:28.210Z,2.90
2019-01-29T04:22:57.565Z,2.90
2019-01-29T04:25:26.812Z,2.90
2019-01-29T04:27:56.115Z,2.80
2019-01-29T04:30:25.428Z,2.80
2019-01-29T04:32:54.714Z,2.80
2019-01-29T04:35:23.971Z,2.70
2019-01-29T04:37:53.538Z,2.60
2019-01-29T04:40:22.817Z,2.60
2019-01-29T04:42:52.090Z,2.60
2019-01-29T04:45:21.359Z,2.60
2019-01-29T04:47:50.653Z,2.60
2019-01-29T04:50:22.791Z,2.70
2019-01-29T04:52:52.105Z,2.70
2019-01-29T04:55:21.831Z,2.70
2019-01-29T04:57:51.162Z,2.70
2019-01-29T05:00:23.231Z,2.80
2019-01-29T05:02:52.539Z,2.70
2019-01-29T05:05:22.077Z,2.70
2019-01-29T05:07:51.410Z,2.80
2019-01-29T05:10:21.019Z,2.80
2019-01-29T05:12:50.349Z,2.80
2019-01-29T05:15:19.764Z,2.80
2019-01-29T05:17:49.260Z,2.80
2019-01-29T05:20:20.529Z,2.80
2019-01-29T05:22:49.847Z,2.80
2019-01-29T05:25:19.325Z,2.90
2019-01-29T05:27:48.785Z,2.90
2019-01-29T05:30:23.235Z,2.90
2019-01-29T05:32:52.631Z,2.90
2019-01-29T05:35:22.392Z,2.90
2019-01-29T05:37:51.737Z,2.90
2019-01-29T05:40:22.458Z,2.90
2019-01-29T05:42:51.917Z,2.90
2019-01-29T05:45:22.091Z,2.90
2019-01-29T05:47:51.443Z,2.90
2019-01-29T05:50:20.936Z,3.00
2019-01-29T05:52:50.223Z,3.00
2019-01-29T05:55:19.483Z,3.00
2019-01-29T05:57:48.754Z,3.00
2019-01-29T06:00:27.860Z,3.00
2019-01-29T06:02:57.120Z,3.00
2019-01-29T06:05:26.487Z,3.00
2019-01-29T06:07:55.790Z,3.00
2019-01-29T06:10:25.047Z,3.00
2019-01-29T06:12:54.391Z,3.00
2019-01-29T06:15:23.748Z,3.00
2019-01-29T06:17:53.020Z,3.00
2019-01-29T06:20:23.636Z,3.00
2019-01-29T06:22:52.942Z,3.00
2019-01-29T06:25:22.222Z,3.00
2019-01-29T06:27:51.653Z,2.90
2019-01-29T06:30:22.417Z,2.90
2019-01-29T06:32:51.673Z,2.80
2019-01-29T06:35:20.943Z,2.80
2019-01-29T06:37:50.247Z,2.80
2019-01-29T06:40:24.243Z,2.80
2019-01-29T06:42:53.621Z,2.80
2019-01-29T06:45:23.628Z,5.00
2019-01-29T06:47:53.081Z,5.50
2019-01-29T06:50:25.120Z,5.80
2019-01-29T06:52:54.586Z,6.50
2019-01-29T06:55:24.124Z,6.00
2019-01-29T06:57:55.584Z,5.10
2019-01-29T07:00:27.153Z,4.40
2019-01-29T07:02:56.565Z,3.90
2019-01-29T07:05:25.841Z,3.50
2019-01-29T07:07:55.226Z,3.20
2019-01-29T07:10:24.659Z,3.10
2019-01-29T07:12:53.939Z,3.00
2019-01-29T07:15:42.198Z,2.90
2019-01-29T07:18:29.747Z,2.90
2019-01-29T07:20:59.050Z,2.90
2019-01-29T07:23:28.390Z,2.80
2019-01-29T07:25:57.659Z,2.80
2019-01-29T07:28:26.998Z,2.70
2019-01-29T07:30:56.320Z,2.70
2019-01-29T07:33:25.666Z,2.80
2019-01-29T07:35:54.973Z,2.80
2019-01-29T07:38:24.265Z,2.70
2019-01-29T07:40:53.527Z,2.80
2019-01-29T07:43:22.830Z,2.80
2019-01-29T07:45:52.142Z,2.80
2019-01-29T07:48:21.422Z,2.80
2019-01-29T07:50:50.742Z,2.90
2019-01-29T07:53:20.099Z,3.00
2019-01-29T07:55:49.476Z,3.00
2019-01-29T07:58:18.780Z,3.10
2019-01-29T08:00:48.062Z,3.10
2019-01-29T08:03:17.389Z,3.20
2019-01-29T08:05:46.700Z,3.20
2019-01-29T08:08:15.971Z,3.20
2019-01-29T08:10:45.235Z,3.20
2019-01-29T08:13:14.636Z,3.30
2019-01-29T08:15:43.932Z,3.30
2019-01-29T08:18:13.368Z,3.30
2019-01-29T08:20:42.675Z,3.30
2019-01-29T08:23:11.988Z,3.40
2019-01-29T08:25:47.670Z,3.40
2019-01-29T08:28:12.276Z,3.40
2019-01-29T08:30:41.567Z,3.40
2019-01-29T08:33:10.834Z,3.40
2019-01-29T08:35:41.548Z,3.50
2019-01-29T08:38:11.048Z,3.60
2019-01-29T08:40:40.335Z,3.70
2019-01-29T08:43:09.648Z,3.80
2019-01-29T08:45:38.935Z,3.80
2019-01-29T08:48:08.217Z,3.80
2019-01-29T08:50:37.550Z,3.90
2019-01-29T08:53:06.860Z,4.00
2019-01-29T08:55:36.157Z,4.00
2019-01-29T08:58:05.661Z,4.10
2019-01-29T09:00:34.978Z,4.10
2019-01-29T09:03:04.456Z,4.20
2019-01-29T09:05:33.837Z,4.30
2019-01-29T09:08:03.108Z,4.30
2019-01-29T09:10:32.429Z,4.30
2019-01-29T09:13:01.717Z,4.20
2019-01-29T09:15:30.994Z,4.10
2019-01-29T09:18:00.493Z,4.10
2019-01-29T09:20:29.795Z,4.20
2019-01-29T09:22:59.138Z,4.10
2019-01-29T09:25:28.409Z,4.20
2019-01-29T09:27:57.727Z,4.10
2019-01-29T09:30:27.000Z,4.10
2019-01-29T09:32:56.272Z,4.10
2019-01-29T09:35:25.579Z,4.10
2019-01-29T09:37:54.929Z,4.10
2019-01-29T09:40:24.308Z,4.10
2019-01-29T09:42:53.728Z,4.10
2019-01-29T09:45:23.197Z,4.10
2019-01-29T09:47:52.462Z,4.30
2019-01-29T09:50:22.772Z,5.20
2019-01-29T09:52:53.383Z,6.40
2019-01-29T09:55:29.068Z,7.70
2019-01-29T09:57:54.112Z,8.40
2019-01-29T10:00:34.501Z,9.80
2019-01-29T10:03:04.304Z,10.80
2019-01-29T10:05:33.583Z,11.80
2019-01-29T10:08:02.866Z,12.90
2019-01-29T10:10:32.312Z,12.30
2019-01-29T10:13:02.488Z,12.90
2019-01-29T10:15:33.353Z,13.30
2019-01-29T10:18:02.841Z,13.10
2019-01-29T10:20:32.126Z,14.10
2019-01-29T10:23:01.386Z,14.90
2019-01-29T10:25:37.348Z,15.20
2019-01-29T10:28:01.715Z,15.50
2019-01-29T10:30:31.013Z,15.50
2019-01-29T10:33:01.173Z,15.20
2019-01-29T10:35:30.659Z,13.60
2019-01-29T10:37:59.993Z,12.90
2019-01-29T10:40:30.062Z,12.00
2019-01-29T10:42:59.972Z,11.80
2019-01-29T10:45:29.919Z,11.90
2019-01-29T10:47:59.510Z,12.30
2019-01-29T10:50:29.690Z,11.30
2019-01-29T10:52:59.170Z,10.40
2019-01-29T10:55:28.451Z,10.10
2019-01-29T10:57:57.990Z,9.60
2019-01-29T11:00:39.584Z,10.40
2019-01-29T11:03:09.874Z,11.60
2019-01-29T11:05:39.251Z,12.00
2019-01-29T11:08:08.615Z,12.80
2019-01-29T11:10:37.971Z,13.60
2019-01-29T11:13:07.495Z,12.60
2019-01-29T11:15:39.131Z,11.20
2019-01-29T11:18:12.179Z,10.00
2019-01-29T11:20:41.745Z,9.30
2019-01-29T11:23:11.015Z,9.20
2019-01-29T11:25:40.418Z,10.30
2019-01-29T11:28:09.789Z,11.20
2019-01-29T11:30:39.149Z,11.10
2019-01-29T11:33:09.171Z,10.90
2019-01-29T11:35:40.400Z,10.80
2019-01-29T11:38:09.531Z,11.30
2019-01-29T11:40:38.941Z,11.30
2019-01-29T11:43:08.509Z,11.60
2019-01-29T11:45:41.474Z,11.50
2019-01-29T11:48:10.739Z,11.60
2019-01-29T11:50:40.139Z,12.50
2019-01-29T11:53:09.529Z,13.00
2019-01-29T11:55:38.777Z,13.30
2019-01-29T11:58:08.097Z,12.30
2019-01-29T12:00:42.258Z,11.60
2019-01-29T12:03:11.570Z,11.90
2019-01-29T12:05:40.837Z,12.10
2019-01-29T12:08:10.215Z,11.20
2019-01-29T12:10:39.509Z,9.90
2019-01-29T12:13:08.764Z,9.60
2019-01-29T12:15:38.032Z,9.00
2019-01-29T12:18:07.669Z,8.10
2019-01-29T12:20:37.414Z,8.40
2019-01-29T12:23:06.674Z,8.00
2019-01-29T12:25:35.974Z,7.20
2019-01-29T12:28:05.604Z,7.10
2019-01-29T12:30:35.358Z,7.00
2019-01-29T12:33:06.305Z,7.10
2019-01-29T12:35:35.674Z,8.20
2019-01-29T12:38:05.252Z,9.70
2019-01-29T12:40:34.515Z,9.90
2019-01-29T12:43:03.897Z,9.50
2019-01-29T12:45:33.341Z,9.40
2019-01-29T12:48:02.653Z,9.70
2019-01-29T12:50:32.273Z,9.60
2019-01-29T12:53:09.755Z,10.20
2019-01-29T12:55:39.158Z,10.70
2019-01-29T12:58:08.660Z,10.80
2019-01-29T13:00:47.271Z,9.60
2019-01-29T13:03:16.866Z,9.30
2019-01-29T13:05:46.156Z,9.80
2019-01-29T13:08:15.449Z,10.00
2019-01-29T13:10:44.696Z,9.60
2019-01-29T13:13:13.973Z,10.00
2019-01-29T13:15:43.633Z,9.50
2019-01-29T13:18:13.053Z,9.60
2019-01-29T13:20:42.344Z,9.00
2019-01-29T13:23:11.649Z,8.80
2019-01-29T13:25:40.905Z,9.00
2019-01-29T13:28:10.181Z,8.60
2019-01-29T13:30:39.584Z,8.30
2019-01-29T13:33:11.737Z,8.40
2019-01-29T13:35:41.911Z,8.40
2019-01-29T13:38:11.917Z,8.30
2019-01-29T13:40:41.193Z,7.70
2019-01-29T13:43:10.610Z,7.40
2019-01-29T13:45:40.379Z,7.10
2019-01-29T13:48:09.852Z,7.00
2019-01-29T13:50:45.112Z,7.00
2019-01-29T13:53:15.005Z,6.90
2019-01-29T13:55:44.288Z,6.70
2019-01-29T13:58:13.536Z,6.90
2019-01-29T14:00:42.896Z,6.60
2019-01-29T14:03:13.038Z,6.50
2019-01-29T14:05:42.317Z,6.40
2019-01-29T14:08:11.621Z,6.40
2019-01-29T14:10:40.882Z,6.50
2019-01-29T14:13:10.256Z,6.40
2019-01-29T14:15:48.787Z,6.20
2019-01-29T14:18:19.394Z,5.60
2019-01-29T14:20:48.763Z,5.10
2019-01-29T14:23:18.159Z,4.90
2019-01-29T14:25:47.478Z,5.00
2019-01-29T14:28:16.736Z,5.00
2019-01-29T14:30:46.405Z,5.20
2019-01-29T14:33:15.769Z,5.00
2019-01-29T14:35:45.188Z,4.80
2019-01-29T14:38:52.305Z,4.80
2019-01-29T14:41:22.693Z,4.70
2019-01-29T14:43:57.236Z,4.50
2019-01-29T14:46:26.503Z,4.50
2019-01-29T14:48:55.838Z,4.60
2019-01-29T14:51:25.117Z,4.40
2019-01-29T14:53:54.424Z,4.60
2019-01-29T14:56:23.776Z,4.40
2019-01-29T14:58:53.097Z,4.20
2019-01-29T15:01:22.913Z,4.00
2019-01-29T15:03:52.189Z,4.00
2019-01-29T15:06:21.522Z,4.00
2019-01-29T15:08:50.856Z,4.00
2019-01-29T15:11:20.144Z,4.00
2019-01-29T15:13:49.440Z,4.00
2019-01-29T15:16:29.001Z,3.90
2019-01-29T15:19:03.742Z,3.80
2019-01-29T15:21:37.965Z,3.60
2019-01-29T15:24:04.137Z,3.60
2019-01-29T15:26:33.450Z,3.50
2019-01-29T15:29:02.937Z,3.40
2019-01-29T15:31:32.219Z,3.40
2019-01-29T15:34:01.656Z,3.30
2019-01-29T15:36:31.031Z,3.30
2019-01-29T15:39:00.534Z,3.30
2019-01-29T15:41:29.869Z,3.20
2019-01-29T15:43:59.325Z,3.20
2019-01-29T15:46:28.672Z,3.10
2019-01-29T15:48:57.963Z,3.10
2019-01-29T15:51:27.240Z,3.10
2019-01-29T15:53:56.634Z,3.10
2019-01-29T15:56:26.420Z,3.00
2019-01-29T15:58:55.980Z,3.00
2019-01-29T16:01:25.236Z,2.90
2019-01-29T16:03:54.521Z,2.90
2019-01-29T16:06:23.959Z,2.80
2019-01-29T16:08:53.640Z,2.80
2019-01-29T16:11:22.995Z,2.80
2019-01-29T16:13:52.586Z,2.70
2019-01-29T16:16:21.913Z,2.70
2019-01-29T16:18:51.571Z,2.70
2019-01-29T16:21:20.966Z,2.60
2019-01-29T16:23:50.224Z,2.60
2019-01-29T16:26:19.565Z,2.60
2019-01-29T16:28:48.859Z,2.60
2019-01-29T16:31:18.142Z,2.50
2019-01-29T16:33:47.448Z,2.50
2019-01-29T16:36:16.722Z,2.50
2019-01-29T16:38:45.978Z,2.50
2019-01-29T16:41:15.400Z,2.50
2019-01-29T16:43:44.683Z,2.40
2019-01-29T16:46:13.952Z,2.30
2019-01-29T16:48:43.245Z,2.30
2019-01-29T16:51:12.515Z,2.20
2019-01-29T16:53:41.869Z,2.20
2019-01-29T16:56:11.177Z,2.20
2019-01-29T16:58:40.474Z,2.20
2019-01-29T17:01:10.800Z,2.20
2019-01-29T17:03:40.241Z,2.10
2019-01-29T17:06:09.528Z,2.10
2019-01-29T17:08:38.828Z,2.20
2019-01-29T17:11:08.124Z,2.10
2019-01-29T17:13:37.432Z,2.20
2019-01-29T17:16:06.757Z,2.20
2019-01-29T17:18:36.043Z,2.20
2019-01-29T17:21:05.417Z,2.20
2019-01-29T17:23:34.779Z,2.20
2019-01-29T17:26:04.164Z,2.20
2019-01-29T17:28:33.485Z,2.10
2019-01-29T17:31:02.896Z,2.20
2019-01-29T17:33:32.499Z,2.20
2019-01-29T17:36:01.846Z,2.10
2019-01-29T17:38:31.125Z,2.10
2019-01-29T17:41:00.406Z,2.00
2019-01-29T17:43:29.695Z,2.00
2019-01-29T17:45:58.994Z,2.00
2019-01-29T17:48:28.240Z,1.90
2019-01-29T17:50:57.564Z,1.90
2019-01-29T17:53:26.820Z,1.90
2019-01-29T17:55:56.133Z,2.00
2019-01-29T17:58:25.392Z,2.00
2019-01-29T18:00:58.300Z,2.00
2019-01-29T18:03:27.586Z,2.00
2019-01-29T18:05:56.878Z,2.10
2019-01-29T18:08:26.156Z,4.00
2019-01-29T18:10:55.510Z,6.60
2019-01-29T18:13:24.801Z,6.70
2019-01-29T18:15:54.041Z,6.60
2019-01-29T18:18:23.322Z,5.20
2019-01-29T18:20:52.597Z,4.00
2019-01-29T18:23:22.005Z,3.30
2019-01-29T18:25:51.296Z,2.90
2019-01-29T18:28:20.604Z,2.60
2019-01-29T18:30:49.891Z,2.40
2019-01-29T18:33:19.154Z,2.30
2019-01-29T18:35:48.433Z,2.30
2019-01-29T18:38:17.713Z,2.20
2019-01-29T18:40:50.663Z,2.20
2019-01-29T18:43:19.932Z,2.10
2019-01-29T18:45:49.204Z,2.20
2019-01-29T18:48:18.469Z,2.10
2019-01-29T18:50:47.812Z,2.10
2019-01-29T18:53:17.100Z,2.10
2019-01-29T18:55:46.393Z,2.10
2019-01-29T18:58:15.660Z,2.10
2019-01-29T19:00:54.021Z,2.10
2019-01-29T19:03:16.089Z,2.10
2019-01-29T19:05:45.405Z,2.10
2019-01-29T19:08:14.705Z,2.10
2019-01-29T19:10:44.100Z,2.10
2019-01-29T19:13:13.372Z,2.00
2019-01-29T19:15:42.634Z,2.00
2019-01-29T19:18:11.915Z,2.10
2019-01-29T19:20:41.309Z,2.10
2019-01-29T19:23:10.606Z,2.00
2019-01-29T19:25:39.925Z,2.00
2019-01-29T19:28:09.214Z,2.00
2019-01-29T19:30:38.501Z,2.00
2019-01-29T19:33:07.768Z,2.00
2019-01-29T19:35:37.099Z,2.00
2019-01-29T19:38:06.398Z,2.00
2019-01-29T19:40:35.755Z,2.00
2019-01-29T19:43:05.114Z,2.00
2019-01-29T19:45:35.064Z,2.00
2019-01-29T19:48:05.324Z,2.00
2019-01-29T19:50:34.584Z,2.00
2019-01-29T19:53:03.856Z,2.00
2019-01-29T19:55:33.146Z,2.00
2019-01-29T19:58:08.636Z,2.00
2019-01-29T20:00:36.005Z,2.00
2019-01-29T20:03:06.086Z,2.00
2019-01-29T20:05:35.483Z,2.00
2019-01-29T20:08:05.169Z,2.00
2019-01-29T20:10:34.583Z,2.00
2019-01-29T20:13:03.887Z,2.00
2019-01-29T20:15:33.144Z,2.00
2019-01-29T20:18:02.425Z,2.00
2019-01-29T20:20:34.528Z,2.10
2019-01-29T20:23:08.117Z,2.10
2019-01-29T20:25:34.910Z,2.10
2019-01-29T20:28:05.778Z,2.10
2019-01-29T20:30:36.312Z,2.10
2019-01-29T20:33:06.004Z,2.00
2019-01-29T20:35:35.285Z,2.10
2019-01-29T20:38:04.815Z,2.00
2019-01-29T20:40:34.198Z,2.10
2019-01-29T20:43:03.525Z,2.10
2019-01-29T20:45:33.091Z,2.10
2019-01-29T20:48:02.361Z,2.00
2019-01-29T20:50:33.661Z,2.00
2019-01-29T20:53:02.927Z,2.00
2019-01-29T20:55:32.234Z,2.00
2019-01-29T20:58:01.483Z,2.10
2019-01-29T21:00:32.897Z,2.10
2019-01-29T21:03:02.204Z,2.00
2019-01-29T21:05:31.448Z,2.00
2019-01-29T21:08:00.742Z,2.00
2019-01-29T21:10:29.983Z,2.00
2019-01-29T21:12:59.302Z,2.00
2019-01-29T21:15:37.633Z,2.00
2019-01-29T21:17:59.593Z,1.90
2019-01-29T21:20:30.309Z,2.00
2019-01-29T21:22:59.933Z,2.00
2019-01-29T21:25:29.198Z,1.90
2019-01-29T21:27:58.655Z,1.90
2019-01-29T21:30:32.879Z,2.00
2019-01-29T21:33:02.174Z,2.00
2019-01-29T21:35:31.619Z,2.00
2019-01-29T21:38:01.059Z,2.00
2019-01-29T21:40:30.465Z,2.00
2019-01-29T21:42:59.725Z,2.00
2019-01-29T21:45:29.032Z,2.00
2019-01-29T21:48:00.122Z,2.00
2019-01-29T21:50:30.776Z,2.00
2019-01-29T21:53:00.108Z,2.00
2019-01-29T21:55:29.453Z,2.00
2019-01-29T21:57:59.012Z,1.90
2019-01-29T22:00:48.849Z,1.90
2019-01-29T22:03:18.218Z,1.90
2019-01-29T22:05:47.550Z,1.90
2019-01-29T22:08:16.802Z,1.90
2019-01-29T22:10:46.071Z,1.90
2019-01-29T22:13:15.342Z,1.90
2019-01-29T22:15:44.596Z,1.90
2019-01-29T22:18:14.885Z,1.90
2019-01-29T22:20:44.162Z,1.90
2019-01-29T22:23:13.540Z,1.90
2019-01-29T22:25:42.826Z,1.90
2019-01-29T22:28:12.392Z,1.80
2019-01-29T22:30:43.077Z,1.80
2019-01-29T22:33:12.354Z,1.80
2019-01-29T22:35:41.670Z,1.80
2019-01-29T22:38:11.029Z,1.80
2019-01-29T22:40:40.294Z,1.80
2019-01-29T22:43:09.585Z,1.80
2019-01-29T22:45:38.852Z,1.70
2019-01-29T22:48:09.198Z,1.70
2019-01-29T22:50:40.673Z,1.70
2019-01-29T22:53:09.946Z,1.70
2019-01-29T22:55:39.365Z,1.70
2019-01-29T22:58:08.829Z,1.70
2019-01-29T23:01:15.868Z,1.70
2019-01-29T23:03:50.878Z,1.70
2019-01-29T23:06:44.740Z,1.70
2019-01-29T23:09:14.056Z,1.70
2019-01-29T23:11:43.325Z,1.60
2019-01-29T23:14:12.727Z,1.60
2019-01-29T23:16:42.005Z,1.60
2019-01-29T23:19:11.281Z,1.70
2019-01-29T23:21:40.563Z,1.60
2019-01-29T23:24:09.889Z,1.60
2019-01-29T23:26:39.195Z,1.60
2019-01-29T23:29:08.499Z,1.60
2019-01-29T23:31:37.843Z,1.60
2019-01-29T23:34:10.066Z,1.60
2019-01-29T23:36:39.441Z,1.60
2019-01-29T23:39:09.740Z,1.60
2019-01-29T23:41:39.054Z,1.60
2019-01-29T23:44:08.420Z,1.60
2019-01-29T23:46:37.749Z,1.60
2019-01-29T23:49:07.023Z,1.60
2019-01-29T23:51:36.287Z,1.60
2019-01-29T23:54:06.401Z,1.60
2019-01-29T23:56:35.709Z,1.60
2019-01-29T23:59:05.305Z,1.60
